Time;durP1;ratioP1;P1;durP2;ratioP2;P2;SDS_P1;SDS_P2;PMS_P1;PMS_P2;Temp;Humidity;BMP_temperature;BMP_pressure;BME280_temperature;BME280_humidity;BME280_pressure;Samples;Min_cycle;Max_cycle;Signal;HPM_P1;HPM_P2
2022/03/19 00:01:15;;;;;;;;;25.25;14.25;;;;;;;;5082969;27;51141;-49
2022/03/19 00:03:59;;;;;;;;;17.00;11.00;;;;;;;;5095812;27;51133;-50
2022/03/19 00:06:46;;;;;;;;;23.75;12.75;;;;;;;;5079671;27;51470;-52
2022/03/19 00:09:30;;;;;;;;;19.50;11.25;;;;;;;;5085239;27;51141;-55
2022/03/19 00:12:15;;;;;;;;;17.50;10.75;;;;;;;;5092013;27;51056;-48
2022/03/19 00:14:59;;;;;;;;;19.00;12.25;;;;;;;;5080980;27;51153;-47
2022/03/19 00:17:43;;;;;;;;;19.00;12.75;;;;;;;;5083869;27;51314;-48
2022/03/19 00:20:28;;;;;;;;;19.25;14.50;;;;;;;;5079841;27;51720;-50
2022/03/19 00:23:12;;;;;;;;;23.50;14.75;;;;;;;;5079911;27;51174;-48
2022/03/19 00:25:57;;;;;;;;;19.25;14.00;;;;;;;;5078325;27;51101;-47
2022/03/19 00:28:42;;;;;;;;;14.75;9.25;;;;;;;;5088872;27;51086;-51
2022/03/19 00:31:26;;;;;;;;;17.50;12.25;;;;;;;;5099367;27;51350;-46
2022/03/19 00:34:10;;;;;;;;;19.25;12.25;;;;;;;;5099373;27;51153;-48
2022/03/19 00:36:56;;;;;;;;;17.75;12.75;;;;;;;;5089830;27;51489;-47
2022/03/19 00:39:40;;;;;;;;;17.25;12.25;;;;;;;;5088077;27;51093;-49
2022/03/19 00:42:24;;;;;;;;;16.50;13.50;;;;;;;;5086288;27;51046;-47
2022/03/19 00:45:09;;;;;;;;;17.50;13.00;;;;;;;;5082429;27;52218;-49
2022/03/19 00:47:54;;;;;;;;;15.75;11.00;;;;;;;;5089632;27;51156;-50
2022/03/19 00:50:38;;;;;;;;;15.00;11.25;;;;;;;;5098353;27;51101;-48
2022/03/19 00:53:22;;;;;;;;;20.75;13.25;;;;;;;;5090209;27;51128;-48
2022/03/19 00:56:09;;;;;;;;;23.75;12.00;;;;;;;;5065054;27;52132;-49
2022/03/19 00:58:54;;;;;;;;;19.75;13.25;;;;;;;;5094662;27;51122;-47
2022/03/19 01:01:39;;;;;;;;;19.50;11.00;;;;;;;;5081139;27;51458;-46
2022/03/19 01:04:23;;;;;;;;;23.00;13.00;;;;;;;;5089795;27;51116;-50
2022/03/19 01:07:07;;;;;;;;;16.75;13.00;;;;;;;;5082473;27;51107;-50
2022/03/19 01:09:52;;;;;;;;;15.25;13.00;;;;;;;;5082472;27;51206;-46
2022/03/19 01:12:36;;;;;;;;;21.50;11.50;;;;;;;;5084700;27;51062;-46
2022/03/19 01:15:21;;;;;;;;;17.00;13.50;;;;;;;;5087168;27;51106;-48
2022/03/19 01:18:05;;;;;;;;;15.25;11.25;;;;;;;;5085515;27;51086;-47
2022/03/19 01:20:50;;;;;;;;;20.00;10.25;;;;;;;;5087976;27;51509;-47
2022/03/19 01:23:34;;;;;;;;;14.25;12.25;;;;;;;;5087044;27;51118;-52
2022/03/19 01:26:18;;;;;;;;;23.50;12.25;;;;;;;;5079063;27;51432;-51
2022/03/19 01:29:02;;;;;;;;;18.25;14.00;;;;;;;;5094581;27;51470;-49
2022/03/19 01:31:47;;;;;;;;;20.50;12.00;;;;;;;;5084134;27;51234;-47
2022/03/19 01:34:31;;;;;;;;;15.00;10.25;;;;;;;;5083440;27;51066;-49
2022/03/19 01:37:16;;;;;;;;;17.50;14.00;;;;;;;;5099209;27;51519;-49
2022/03/19 01:40:00;;;;;;;;;19.75;14.25;;;;;;;;5084528;27;51166;-46
2022/03/19 01:42:49;;;;;;;;;17.50;12.50;;;;;;;;5084818;27;51180;-48
2022/03/19 01:45:34;;;;;;;;;15.75;11.50;;;;;;;;5099841;27;51423;-47
2022/03/19 01:48:19;;;;;;;;;19.00;14.25;;;;;;;;5102518;27;51213;-47
2022/03/19 01:51:03;;;;;;;;;14.50;12.75;;;;;;;;5103101;27;51671;-47
2022/03/19 01:53:47;;;;;;;;;17.00;11.00;;;;;;;;5100417;27;51173;-47
2022/03/19 01:56:33;;;;;;;;;18.25;12.25;;;;;;;;5102843;27;51160;-50
2022/03/19 01:59:17;;;;;;;;;22.50;13.25;;;;;;;;5095327;27;51076;-47
2022/03/19 02:02:05;;;;;;;;;19.75;12.50;;;;;;;;5097567;27;52038;-47
2022/03/19 02:04:50;;;;;;;;;13.75;11.00;;;;;;;;5081914;27;51090;-49
2022/03/19 02:07:35;;;;;;;;;18.25;12.25;;;;;;;;5087863;27;51169;-46
2022/03/19 02:10:21;;;;;;;;;20.50;15.00;;;;;;;;5101355;27;51518;-47
2022/03/19 02:13:05;;;;;;;;;19.75;13.50;;;;;;;;5101702;27;51118;-46
2022/03/19 02:15:50;;;;;;;;;21.25;14.25;;;;;;;;5089937;27;51115;-47
2022/03/19 02:18:34;;;;;;;;;18.75;10.25;;;;;;;;5099407;27;51148;-49
2022/03/19 02:21:19;;;;;;;;;23.50;12.75;;;;;;;;5102933;27;50986;-47
2022/03/19 02:27:06;;;;;;;;;18.25;10.75;;;;;;;;5095435;27;51506;-48
2022/03/19 02:29:51;;;;;;;;;17.75;13.00;;;;;;;;5083730;27;51229;-48
2022/03/19 02:32:38;;;;;;;;;15.75;11.00;;;;;;;;5091645;27;51173;-46
2022/03/19 02:35:22;;;;;;;;;20.50;13.25;;;;;;;;5101890;27;51188;-46
2022/03/19 02:38:06;;;;;;;;;15.50;8.25;;;;;;;;5089980;27;51321;-49
2022/03/19 02:40:51;;;;;;;;;17.00;7.75;;;;;;;;5099046;27;51147;-46
2022/03/19 02:43:35;;;;;;;;;17.00;12.75;;;;;;;;5089086;27;51145;-48
2022/03/19 02:46:35;;;;;;;;;17.75;12.75;;;;;;;;5082551;27;51160;-49
2022/03/19 02:49:21;;;;;;;;;17.50;11.25;;;;;;;;5091215;27;51051;-46
2022/03/19 02:52:05;;;;;;;;;22.00;12.50;;;;;;;;5101465;27;51119;-47
2022/03/19 02:54:49;;;;;;;;;16.50;13.25;;;;;;;;5094191;27;51162;-48
2022/03/19 02:57:34;;;;;;;;;20.00;14.00;;;;;;;;5094874;27;52275;-51
2022/03/19 03:00:19;;;;;;;;;18.00;14.50;;;;;;;;5098436;27;51582;-47
2022/03/19 03:03:04;;;;;;;;;24.75;14.00;;;;;;;;5090699;27;51144;-48
2022/03/19 03:05:48;;;;;;;;;21.75;14.50;;;;;;;;5095838;27;51022;-49
2022/03/19 03:08:32;;;;;;;;;16.50;11.50;;;;;;;;5088549;27;51178;-46
2022/03/19 03:11:17;;;;;;;;;15.00;10.25;;;;;;;;5091781;27;51079;-48
2022/03/19 03:14:02;;;;;;;;;18.25;14.00;;;;;;;;5082397;27;51121;-46
2022/03/19 03:16:47;;;;;;;;;18.75;12.25;;;;;;;;5097934;27;51422;-49
2022/03/19 03:19:32;;;;;;;;;21.25;15.00;;;;;;;;5067628;27;51092;-49
2022/03/19 03:22:16;;;;;;;;;19.00;13.25;;;;;;;;5082906;27;51179;-48
2022/03/19 03:25:01;;;;;;;;;22.00;15.00;;;;;;;;5080560;27;51123;-52
2022/03/19 03:27:46;;;;;;;;;16.25;10.00;;;;;;;;5082956;27;51120;-50
2022/03/19 03:30:30;;;;;;;;;16.75;12.00;;;;;;;;5097288;27;51422;-47
2022/03/19 03:33:14;;;;;;;;;20.25;15.50;;;;;;;;5083969;27;51256;-49
2022/03/19 03:35:59;;;;;;;;;14.75;12.00;;;;;;;;5087653;27;51050;-47
2022/03/19 03:38:43;;;;;;;;;21.50;12.25;;;;;;;;5086133;27;51156;-49
2022/03/19 03:41:27;;;;;;;;;23.50;12.25;;;;;;;;5085139;27;51442;-48
2022/03/19 03:44:12;;;;;;;;;18.25;14.75;;;;;;;;5092925;27;51099;-46
2022/03/19 03:46:56;;;;;;;;;16.75;14.50;;;;;;;;5097475;27;50997;-48
2022/03/19 03:49:41;;;;;;;;;16.00;13.50;;;;;;;;5100257;27;51616;-48
2022/03/19 03:52:26;;;;;;;;;25.50;13.50;;;;;;;;5085321;27;51186;-51
2022/03/19 03:55:11;;;;;;;;;24.25;13.25;;;;;;;;5094051;27;51340;-47
2022/03/19 03:57:55;;;;;;;;;22.50;15.25;;;;;;;;5082330;27;51099;-52
2022/03/19 04:00:40;;;;;;;;;21.25;15.00;;;;;;;;5085262;27;51110;-46
2022/03/19 04:03:25;;;;;;;;;20.00;7.50;;;;;;;;5081166;27;51409;-47
2022/03/19 04:06:09;;;;;;;;;19.25;14.25;;;;;;;;5087931;27;51433;-46
2022/03/19 04:08:54;;;;;;;;;18.75;12.00;;;;;;;;5079754;27;51160;-48
2022/03/19 04:11:38;;;;;;;;;20.75;13.00;;;;;;;;5083364;27;51016;-50
2022/03/19 04:14:22;;;;;;;;;18.50;11.75;;;;;;;;5083979;27;51200;-47
2022/03/19 04:17:07;;;;;;;;;18.75;13.50;;;;;;;;5082576;27;51045;-49
2022/03/19 04:19:51;;;;;;;;;16.00;14.00;;;;;;;;5076932;27;51550;-48
2022/03/19 04:22:36;;;;;;;;;15.00;12.25;;;;;;;;5084702;27;51069;-48
2022/03/19 04:25:22;;;;;;;;;16.25;7.75;;;;;;;;5081146;27;51078;-47
2022/03/19 04:28:06;;;;;;;;;18.25;11.50;;;;;;;;5078971;27;51517;-47
2022/03/19 04:30:50;;;;;;;;;21.50;15.25;;;;;;;;5082161;27;51681;-51
2022/03/19 04:33:35;;;;;;;;;20.75;13.75;;;;;;;;5094766;27;51106;-46
2022/03/19 04:36:32;;;;;;;;;16.50;11.75;;;;;;;;5089523;27;51349;-47
2022/03/19 04:39:16;;;;;;;;;21.50;15.50;;;;;;;;5095164;27;51424;-47
2022/03/19 04:42:01;;;;;;;;;15.25;12.00;;;;;;;;5086065;27;51077;-47
2022/03/19 04:44:45;;;;;;;;;16.00;12.75;;;;;;;;5087287;27;51542;-48
2022/03/19 04:47:30;;;;;;;;;18.75;12.25;;;;;;;;5099230;27;51089;-48
2022/03/19 04:50:14;;;;;;;;;22.50;14.00;;;;;;;;5088893;27;50982;-47
2022/03/19 04:52:59;;;;;;;;;26.00;14.50;;;;;;;;5079918;27;51467;-51
2022/03/19 04:55:43;;;;;;;;;26.25;14.00;;;;;;;;5085551;27;51399;-46
2022/03/19 04:58:28;;;;;;;;;16.00;12.00;;;;;;;;5084083;27;51180;-49
2022/03/19 05:01:12;;;;;;;;;20.75;14.75;;;;;;;;5098453;27;51236;-52
2022/03/19 05:03:57;;;;;;;;;21.75;15.00;;;;;;;;5082003;27;51534;-49
2022/03/19 05:06:41;;;;;;;;;16.75;13.25;;;;;;;;5081236;27;51149;-48
2022/03/19 05:12:29;;;;;;;;;21.75;14.00;;;;;;;;5095897;27;51219;-50
2022/03/19 05:15:14;;;;;;;;;18.25;13.75;;;;;;;;5090948;27;51081;-52
2022/03/19 05:17:58;;;;;;;;;24.75;16.00;;;;;;;;5079679;27;51012;-51
2022/03/19 05:20:43;;;;;;;;;19.75;13.50;;;;;;;;5088548;27;51363;-47
2022/03/19 05:23:27;;;;;;;;;20.75;14.25;;;;;;;;5082966;27;51146;-49
2022/03/19 05:26:12;;;;;;;;;20.00;13.50;;;;;;;;5088019;27;51004;-51
2022/03/19 05:28:57;;;;;;;;;18.75;14.50;;;;;;;;5102880;27;51474;-46
2022/03/19 05:31:41;;;;;;;;;25.25;15.75;;;;;;;;5100451;27;51252;-55
2022/03/19 05:34:31;;;;;;;;;18.75;15.25;;;;;;;;5099432;27;51515;-47
2022/03/19 05:37:16;;;;;;;;;19.00;13.25;;;;;;;;5102617;27;51136;-48
2022/03/19 05:40:03;;;;;;;;;17.25;14.00;;;;;;;;5089480;27;51181;-50
2022/03/19 05:42:48;;;;;;;;;21.75;12.75;;;;;;;;5085928;27;51228;-54
2022/03/19 05:45:32;;;;;;;;;25.75;14.50;;;;;;;;5094589;27;51082;-50
2022/03/19 05:48:17;;;;;;;;;18.00;12.75;;;;;;;;5089099;27;51086;-47
2022/03/19 05:51:01;;;;;;;;;17.25;13.00;;;;;;;;5098960;27;51094;-51
2022/03/19 05:53:46;;;;;;;;;18.25;10.50;;;;;;;;5095605;27;51423;-46
2022/03/19 05:56:30;;;;;;;;;27.75;15.25;;;;;;;;5085756;27;51153;-48
2022/03/19 05:59:15;;;;;;;;;25.50;15.00;;;;;;;;5096536;27;51458;-50
2022/03/19 06:01:59;;;;;;;;;26.50;15.25;;;;;;;;5083307;27;51476;-47
2022/03/19 06:04:43;;;;;;;;;19.50;17.00;;;;;;;;5082957;27;51205;-47
2022/03/19 06:07:28;;;;;;;;;22.25;17.50;;;;;;;;5082404;27;51036;-50
2022/03/19 06:10:12;;;;;;;;;22.25;16.50;;;;;;;;5090043;27;51107;-47
2022/03/19 06:12:57;;;;;;;;;28.75;17.50;;;;;;;;5094010;27;51168;-49
2022/03/19 06:15:41;;;;;;;;;28.50;16.50;;;;;;;;5070768;27;51240;-48
2022/03/19 06:18:26;;;;;;;;;26.50;20.75;;;;;;;;5087300;27;51333;-50
2022/03/19 06:21:10;;;;;;;;;30.50;20.25;;;;;;;;5097924;27;51212;-48
2022/03/19 06:23:54;;;;;;;;;21.00;16.25;;;;;;;;5092618;27;51110;-53
2022/03/19 06:26:39;;;;;;;;;17.25;15.25;;;;;;;;5086735;27;51142;-51
2022/03/19 06:29:23;;;;;;;;;21.25;15.00;;;;;;;;5087464;27;51180;-51
2022/03/19 06:32:08;;;;;;;;;27.00;14.75;;;;;;;;5080958;27;51190;-51
2022/03/19 06:34:52;;;;;;;;;28.50;16.00;;;;;;;;5084434;27;51183;-51
2022/03/19 06:37:37;;;;;;;;;24.25;20.75;;;;;;;;5081576;27;51021;-51
2022/03/19 06:40:22;;;;;;;;;23.50;19.75;;;;;;;;5095466;27;51060;-48
2022/03/19 06:43:06;;;;;;;;;22.00;16.00;;;;;;;;5086939;27;51082;-47
2022/03/19 06:45:51;;;;;;;;;24.00;17.75;;;;;;;;5095292;27;51122;-49
2022/03/19 06:48:35;;;;;;;;;22.00;16.50;;;;;;;;5081820;27;51083;-52
2022/03/19 06:51:20;;;;;;;;;23.50;15.00;;;;;;;;5081399;27;51181;-47
2022/03/19 06:54:05;;;;;;;;;18.00;12.50;;;;;;;;5084511;27;51070;-49
2022/03/19 06:56:49;;;;;;;;;21.75;14.25;;;;;;;;5086058;27;51239;-49
2022/03/19 06:59:34;;;;;;;;;25.50;16.00;;;;;;;;5093698;27;51135;-52
2022/03/19 07:02:18;;;;;;;;;20.50;16.50;;;;;;;;5080871;27;51069;-52
2022/03/19 07:05:02;;;;;;;;;26.00;18.50;;;;;;;;5101792;27;51385;-53
2022/03/19 07:07:47;;;;;;;;;21.25;13.75;;;;;;;;5100803;27;51066;-49
2022/03/19 07:10:31;;;;;;;;;25.00;16.00;;;;;;;;5083589;27;51071;-48
2022/03/19 07:13:15;;;;;;;;;24.50;14.75;;;;;;;;5082221;27;51489;-47
2022/03/19 07:16:00;;;;;;;;;23.00;13.50;;;;;;;;5082446;27;51107;-48
2022/03/19 07:18:44;;;;;;;;;27.00;13.50;;;;;;;;5095326;27;51918;-47
2022/03/19 07:21:29;;;;;;;;;26.50;14.75;;;;;;;;5080810;27;51081;-53
2022/03/19 07:24:13;;;;;;;;;31.75;17.00;;;;;;;;5085309;27;51093;-49
2022/03/19 07:26:58;;;;;;;;;26.25;19.50;;;;;;;;5080721;27;51185;-49
2022/03/19 07:29:42;;;;;;;;;17.50;15.25;;;;;;;;5081051;27;51052;-49
2022/03/19 07:32:26;;;;;;;;;19.25;14.00;;;;;;;;5082634;27;51548;-51
2022/03/19 07:35:14;;;;;;;;;20.00;15.50;;;;;;;;5089532;27;51132;-48
2022/03/19 07:37:59;;;;;;;;;21.00;13.00;;;;;;;;5101131;27;51387;-49
2022/03/19 07:43:46;;;;;;;;;14.75;11.00;;;;;;;;5094999;27;51144;-48
2022/03/19 07:46:31;;;;;;;;;23.50;13.50;;;;;;;;5085062;27;51349;-52
2022/03/19 07:49:15;;;;;;;;;15.75;12.00;;;;;;;;5075292;27;51212;-50
2022/03/19 07:52:05;;;;;;;;;22.25;14.75;;;;;;;;5080490;27;51185;-49
2022/03/19 07:54:49;;;;;;;;;22.25;16.75;;;;;;;;5084132;27;51182;-50
2022/03/19 07:57:33;;;;;;;;;18.25;14.00;;;;;;;;5100452;27;51831;-52
2022/03/19 08:00:18;;;;;;;;;21.25;16.00;;;;;;;;5082014;27;52267;-48
2022/03/19 08:03:02;;;;;;;;;21.50;14.00;;;;;;;;5075903;27;51595;-49
2022/03/19 08:05:47;;;;;;;;;16.50;10.75;;;;;;;;5088157;27;51168;-48
2022/03/19 08:08:33;;;;;;;;;18.25;14.00;;;;;;;;5085138;27;51437;-53
2022/03/19 08:11:18;;;;;;;;;30.50;17.50;;;;;;;;5077766;27;51111;-49
2022/03/19 08:14:03;;;;;;;;;23.25;15.00;;;;;;;;5077258;27;51176;-50
2022/03/19 08:16:47;;;;;;;;;25.25;21.25;;;;;;;;5077266;27;51095;-46
2022/03/19 08:19:32;;;;;;;;;26.00;17.50;;;;;;;;5092489;27;51116;-53
2022/03/19 08:22:16;;;;;;;;;19.00;15.00;;;;;;;;5098134;27;51480;-48
2022/03/19 08:25:01;;;;;;;;;21.75;17.25;;;;;;;;5096185;27;51212;-51
2022/03/19 08:27:45;;;;;;;;;18.50;14.75;;;;;;;;5077100;27;51287;-46
2022/03/19 08:30:30;;;;;;;;;20.00;12.50;;;;;;;;5093867;27;51223;-50
2022/03/19 08:33:14;;;;;;;;;17.50;13.00;;;;;;;;5096988;27;51134;-51
2022/03/19 08:35:58;;;;;;;;;15.00;11.25;;;;;;;;5097015;27;51235;-53
2022/03/19 08:41:46;;;;;;;;;18.75;11.50;;;;;;;;5077414;27;51059;-51
2022/03/19 08:44:30;;;;;;;;;16.25;13.50;;;;;;;;5079513;27;51552;-50
2022/03/19 08:47:15;;;;;;;;;17.75;12.75;;;;;;;;5078388;27;51174;-46
2022/03/19 08:50:00;;;;;;;;;17.00;14.00;;;;;;;;5080863;27;51272;-52
2022/03/19 08:52:44;;;;;;;;;20.50;12.75;;;;;;;;5098317;27;51197;-50
2022/03/19 08:55:28;;;;;;;;;21.75;11.25;;;;;;;;5098649;27;51082;-52
2022/03/19 08:58:13;;;;;;;;;18.75;13.50;;;;;;;;5098446;27;51523;-49
2022/03/19 09:00:57;;;;;;;;;21.50;11.75;;;;;;;;5077193;27;51241;-51
2022/03/19 09:03:42;;;;;;;;;17.00;12.50;;;;;;;;5078831;27;51316;-50
2022/03/19 09:06:26;;;;;;;;;20.00;13.50;;;;;;;;5085308;27;51184;-50
2022/03/19 09:09:13;;;;;;;;;14.00;11.25;;;;;;;;5078947;27;51109;-46
2022/03/19 09:11:57;;;;;;;;;18.75;14.25;;;;;;;;5067756;27;51671;-54
2022/03/19 09:14:41;;;;;;;;;16.50;10.25;;;;;;;;5082502;27;51255;-48
2022/03/19 09:17:26;;;;;;;;;20.50;13.50;;;;;;;;5089417;27;51213;-49
2022/03/19 09:20:11;;;;;;;;;20.25;13.00;;;;;;;;5099212;27;51142;-53
2022/03/19 09:22:55;;;;;;;;;22.75;14.00;;;;;;;;5098789;27;51409;-48
2022/03/19 09:25:41;;;;;;;;;23.75;13.50;;;;;;;;5098893;27;51117;-49
2022/03/19 09:28:26;;;;;;;;;20.25;12.75;;;;;;;;5080229;27;51510;-49
2022/03/19 09:31:10;;;;;;;;;20.25;13.75;;;;;;;;5095264;27;51187;-51
2022/03/19 09:33:55;;;;;;;;;19.75;14.25;;;;;;;;5098929;27;51337;-53
2022/03/19 09:36:41;;;;;;;;;21.25;14.00;;;;;;;;5093810;27;51180;-52
2022/03/19 09:39:25;;;;;;;;;17.25;14.25;;;;;;;;5079012;27;51380;-50
2022/03/19 09:42:13;;;;;;;;;15.00;11.75;;;;;;;;5081692;27;51530;-50
2022/03/19 09:44:58;;;;;;;;;27.75;12.75;;;;;;;;5085514;27;51668;-48
2022/03/19 09:47:42;;;;;;;;;15.75;10.75;;;;;;;;5084163;27;51061;-46
2022/03/19 09:50:27;;;;;;;;;23.75;12.75;;;;;;;;5077556;27;51122;-53
2022/03/19 09:53:11;;;;;;;;;17.75;12.25;;;;;;;;5077814;27;51074;-50
2022/03/19 09:55:57;;;;;;;;;16.50;12.00;;;;;;;;5078946;27;51130;-48
2022/03/19 09:58:41;;;;;;;;;17.00;13.00;;;;;;;;5082466;27;51134;-50
2022/03/19 10:01:26;;;;;;;;;17.00;13.25;;;;;;;;5077638;27;51342;-48
2022/03/19 10:04:12;;;;;;;;;15.75;10.25;;;;;;;;5086332;27;51412;-51
2022/03/19 10:10:00;;;;;;;;;12.50;9.50;;;;;;;;5102026;27;50991;-48
2022/03/19 10:12:46;;;;;;;;;18.50;12.50;;;;;;;;5101643;27;51507;-48
2022/03/19 10:15:31;;;;;;;;;16.25;11.50;;;;;;;;5096038;27;51217;-50
2022/03/19 10:18:15;;;;;;;;;20.00;11.75;;;;;;;;5082242;27;51587;-52
2022/03/19 10:21:01;;;;;;;;;19.75;13.25;;;;;;;;5081061;27;51148;-49
2022/03/19 10:23:45;;;;;;;;;18.25;11.00;;;;;;;;5087717;27;51117;-49
2022/03/19 10:26:30;;;;;;;;;21.00;10.00;;;;;;;;5101826;27;51478;-52
2022/03/19 10:29:15;;;;;;;;;15.75;10.75;;;;;;;;5100373;27;51184;-46
2022/03/19 10:32:07;;;;;;;;;15.25;12.75;;;;;;;;5079364;27;51874;-49
2022/03/19 10:34:53;;;;;;;;;19.75;11.50;;;;;;;;5092695;27;51576;-48
2022/03/19 10:37:39;;;;;;;;;14.75;9.25;;;;;;;;5080624;27;51152;-48
2022/03/19 10:40:36;;;;;;;;;18.50;10.00;;;;;;;;5093180;27;51073;-48
2022/03/19 10:43:25;;;;;;;;;21.00;12.25;;;;;;;;5082839;27;51506;-53
2022/03/19 10:46:09;;;;;;;;;16.00;12.75;;;;;;;;5101508;27;51322;-49
2022/03/19 10:48:54;;;;;;;;;18.75;10.50;;;;;;;;5086379;27;51190;-48
2022/03/19 10:51:40;;;;;;;;;12.00;10.25;;;;;;;;5082127;27;51058;-51
2022/03/19 10:54:25;;;;;;;;;20.25;13.25;;;;;;;;5085917;27;51346;-51
2022/03/19 10:57:09;;;;;;;;;13.25;10.50;;;;;;;;5101577;27;51097;-53
2022/03/19 10:59:53;;;;;;;;;15.25;11.25;;;;;;;;5101423;27;51161;-49
2022/03/19 11:02:45;;;;;;;;;16.75;12.00;;;;;;;;5084159;27;51084;-52
2022/03/19 11:05:33;;;;;;;;;16.00;11.50;;;;;;;;5098819;27;51325;-45
2022/03/19 11:08:19;;;;;;;;;16.25;12.75;;;;;;;;5101202;27;51502;-49
2022/03/19 11:11:07;;;;;;;;;17.25;10.50;;;;;;;;5091284;27;51116;-50
2022/03/19 11:13:54;;;;;;;;;18.75;12.25;;;;;;;;5080936;27;51220;-49
2022/03/19 11:16:40;;;;;;;;;16.25;12.00;;;;;;;;5080158;27;51164;-50
2022/03/19 11:19:24;;;;;;;;;22.75;13.00;;;;;;;;5080644;27;51072;-47
2022/03/19 11:22:08;;;;;;;;;23.00;17.50;;;;;;;;5100412;27;51116;-49
2022/03/19 11:24:58;;;;;;;;;23.00;11.00;;;;;;;;5101246;27;51317;-48
2022/03/19 11:27:45;;;;;;;;;14.75;10.25;;;;;;;;5082795;27;51155;-49
2022/03/19 11:30:30;;;;;;;;;10.75;9.25;;;;;;;;5085859;27;51120;-49
2022/03/19 11:33:19;;;;;;;;;14.00;9.50;;;;;;;;5096052;27;51122;-50
2022/03/19 11:36:05;;;;;;;;;15.50;11.00;;;;;;;;5081056;27;51149;-52
2022/03/19 11:38:52;;;;;;;;;14.75;10.50;;;;;;;;5089507;27;51033;-48
2022/03/19 11:41:47;;;;;;;;;13.75;9.75;;;;;;;;5084104;27;51154;-48
2022/03/19 11:44:31;;;;;;;;;14.00;10.75;;;;;;;;5096860;27;51077;-45
2022/03/19 11:47:16;;;;;;;;;14.00;9.75;;;;;;;;5083452;27;51130;-51
2022/03/19 11:50:04;;;;;;;;;22.75;11.50;;;;;;;;5095894;27;51311;-49
2022/03/19 11:52:48;;;;;;;;;17.75;11.25;;;;;;;;5079549;27;51568;-50
2022/03/19 11:55:36;;;;;;;;;16.50;10.25;;;;;;;;5083614;27;51185;-50
2022/03/19 11:58:25;;;;;;;;;18.50;12.75;;;;;;;;5080450;27;51084;-48
2022/03/19 12:01:09;;;;;;;;;14.50;11.00;;;;;;;;5095276;27;51130;-48
2022/03/19 12:04:14;;;;;;;;;20.00;13.25;;;;;;;;5079825;27;51129;-48
2022/03/19 12:06:58;;;;;;;;;19.75;14.50;;;;;;;;5092176;27;51055;-47
2022/03/19 12:09:42;;;;;;;;;18.75;12.50;;;;;;;;5100334;27;51081;-49
2022/03/19 12:12:27;;;;;;;;;12.75;10.50;;;;;;;;5099369;27;51484;-54
2022/03/19 12:15:29;;;;;;;;;19.00;13.50;;;;;;;;5080309;27;51077;-51
2022/03/19 12:18:33;;;;;;;;;14.00;8.25;;;;;;;;5079245;27;51310;-51
2022/03/19 12:21:21;;;;;;;;;19.25;13.00;;;;;;;;5086422;27;51099;-46
2022/03/19 12:24:13;;;;;;;;;10.00;8.75;;;;;;;;5081481;27;51482;-50
2022/03/19 12:26:58;;;;;;;;;15.75;12.00;;;;;;;;5097854;27;51081;-47
2022/03/19 12:29:42;;;;;;;;;14.25;12.75;;;;;;;;5099705;27;51125;-48
2022/03/19 12:32:27;;;;;;;;;20.75;13.75;;;;;;;;5099378;27;51516;-49
2022/03/19 12:35:11;;;;;;;;;18.00;10.25;;;;;;;;5097390;27;51242;-50
2022/03/19 12:37:56;;;;;;;;;20.00;8.50;;;;;;;;5085373;27;51134;-48
2022/03/19 12:43:43;;;;;;;;;15.00;12.75;;;;;;;;5079558;27;51342;-52
2022/03/19 12:46:30;;;;;;;;;17.50;14.50;;;;;;;;5080415;27;51574;-53
2022/03/19 12:49:15;;;;;;;;;17.75;11.25;;;;;;;;5087056;27;51049;-49
2022/03/19 12:52:10;;;;;;;;;13.50;11.25;;;;;;;;5096185;27;51160;-47
2022/03/19 12:54:57;;;;;;;;;17.00;9.25;;;;;;;;5083494;27;51647;-50
2022/03/19 12:57:41;;;;;;;;;16.50;11.00;;;;;;;;5085732;27;51225;-51
2022/03/19 13:00:26;;;;;;;;;11.50;9.25;;;;;;;;5098850;27;51127;-49
2022/03/19 13:03:10;;;;;;;;;15.50;13.25;;;;;;;;5098817;27;51170;-55
2022/03/19 13:05:55;;;;;;;;;18.75;11.00;;;;;;;;5082806;27;51168;-50
2022/03/19 13:08:43;;;;;;;;;15.75;13.25;;;;;;;;5094460;27;51496;-47
2022/03/19 13:11:28;;;;;;;;;17.75;13.00;;;;;;;;5097848;27;51177;-50
2022/03/19 13:14:14;;;;;;;;;15.25;12.75;;;;;;;;5082697;27;51509;-47
2022/03/19 13:16:59;;;;;;;;;15.25;11.50;;;;;;;;5094477;27;52317;-46
2022/03/19 13:19:42;;;;;;;;;23.25;14.50;;;;;;;;5097998;27;51101;-50
2022/03/19 13:22:27;;;;;;;;;17.25;13.75;;;;;;;;5082404;27;51113;-52
2022/03/19 13:25:11;;;;;;;;;15.25;13.50;;;;;;;;5078736;27;51567;-49
2022/03/19 13:28:00;;;;;;;;;20.50;10.25;;;;;;;;5099135;27;51164;-52
2022/03/19 13:30:46;;;;;;;;;18.25;11.75;;;;;;;;5099571;27;51069;-50
2022/03/19 13:33:31;;;;;;;;;11.75;10.25;;;;;;;;5069799;27;51174;-53
2022/03/19 13:36:17;;;;;;;;;20.00;13.25;;;;;;;;5078749;27;51091;-47
2022/03/19 13:39:02;;;;;;;;;19.00;13.00;;;;;;;;5078370;27;51559;-50
2022/03/19 13:41:46;;;;;;;;;18.50;13.25;;;;;;;;5080849;27;51346;-50
2022/03/19 13:44:31;;;;;;;;;20.75;12.75;;;;;;;;5082831;27;51026;-50
2022/03/19 13:47:17;;;;;;;;;14.50;9.50;;;;;;;;5083074;27;51113;-48
2022/03/19 13:50:04;;;;;;;;;13.75;10.00;;;;;;;;5083287;27;51125;-50
2022/03/19 13:52:57;;;;;;;;;12.50;9.75;;;;;;;;5085592;27;51199;-52
2022/03/19 13:55:42;;;;;;;;;17.50;12.25;;;;;;;;5082412;27;51127;-50
2022/03/19 13:58:27;;;;;;;;;14.50;12.75;;;;;;;;5082042;27;51069;-47
2022/03/19 14:01:18;;;;;;;;;15.25;9.75;;;;;;;;5089286;27;51167;-49
2022/03/19 14:04:04;;;;;;;;;20.25;13.25;;;;;;;;5102071;27;51336;-47
2022/03/19 14:06:52;;;;;;;;;16.25;9.75;;;;;;;;5102481;27;51105;-46
2022/03/19 14:09:46;;;;;;;;;16.75;10.00;;;;;;;;5102447;27;51195;-52
2022/03/19 14:12:41;;;;;;;;;12.50;11.00;;;;;;;;5098968;27;51208;-52
2022/03/19 14:15:25;;;;;;;;;17.25;10.50;;;;;;;;5097962;27;51469;-51
2022/03/19 14:18:30;;;;;;;;;15.50;12.50;;;;;;;;5084146;27;51133;-49
2022/03/19 14:21:14;;;;;;;;;21.00;16.75;;;;;;;;5101454;27;51165;-51
2022/03/19 14:24:00;;;;;;;;;15.25;11.25;;;;;;;;5102170;27;51057;-52
2022/03/19 14:26:57;;;;;;;;;17.50;10.75;;;;;;;;5096976;27;51071;-48
2022/03/19 14:29:44;;;;;;;;;15.25;13.50;;;;;;;;5073733;27;51051;-46
2022/03/19 14:32:34;;;;;;;;;18.25;13.25;;;;;;;;5092162;27;51121;-48
2022/03/19 14:35:37;;;;;;;;;18.25;12.25;;;;;;;;5080769;27;51260;-51
2022/03/19 14:38:54;;;;;;;;;15.25;10.00;;;;;;;;5081485;27;51535;-51
2022/03/19 14:41:50;;;;;;;;;16.50;11.50;;;;;;;;5087662;27;51207;-51
2022/03/19 14:44:39;;;;;;;;;17.75;10.00;;;;;;;;5101835;27;51085;-51
2022/03/19 14:47:37;;;;;;;;;17.00;9.75;;;;;;;;5087048;27;51030;-50
2022/03/19 14:50:22;;;;;;;;;19.25;12.00;;;;;;;;5085753;27;51447;-49
2022/03/19 14:53:07;;;;;;;;;16.50;10.50;;;;;;;;5080995;27;51027;-52
2022/03/19 14:56:01;;;;;;;;;18.25;11.75;;;;;;;;5086756;27;51179;-50
2022/03/19 15:04:46;;;;;;;;;18.25;13.75;;;;;;;;5052307;28;51547;-45
2022/03/19 15:07:31;;;;;;;;;18.00;12.50;;;;;;;;5045763;28;51044;-51
2022/03/19 15:10:19;;;;;;;;;22.25;10.75;;;;;;;;5048145;28;51176;-45
2022/03/19 15:13:11;;;;;;;;;13.75;11.00;;;;;;;;5054405;28;51096;-45
2022/03/19 15:15:56;;;;;;;;;19.50;13.75;;;;;;;;5057770;28;52797;-45
2022/03/19 15:18:42;;;;;;;;;25.75;16.00;;;;;;;;5057745;28;51115;-45
2022/03/19 15:21:36;;;;;;;;;19.50;12.00;;;;;;;;5060770;28;51484;-46
2022/03/19 15:24:25;;;;;;;;;20.75;11.50;;;;;;;;5060285;28;51074;-47
2022/03/19 15:27:13;;;;;;;;;25.25;15.75;;;;;;;;5060646;28;51111;-46
2022/03/19 15:29:57;;;;;;;;;14.25;11.25;;;;;;;;5039907;28;51325;-47
2022/03/19 15:32:42;;;;;;;;;23.25;17.00;;;;;;;;5041566;28;51035;-46
2022/03/19 15:35:30;;;;;;;;;12.50;8.25;;;;;;;;5042201;28;50998;-47
2022/03/19 15:38:14;;;;;;;;;20.50;10.00;;;;;;;;5040516;28;51099;-49
2022/03/19 15:41:02;;;;;;;;;16.75;11.50;;;;;;;;5039845;28;51137;-47
2022/03/19 15:43:47;;;;;;;;;15.75;8.50;;;;;;;;5056781;28;51140;-46
2022/03/19 15:46:42;;;;;;;;;16.75;13.25;;;;;;;;5051254;28;51043;-48
2022/03/19 15:49:26;;;;;;;;;21.50;10.50;;;;;;;;5038874;28;51316;-46
2022/03/19 15:52:32;;;;;;;;;13.75;12.00;;;;;;;;5039726;28;51289;-44
2022/03/19 15:55:17;;;;;;;;;15.00;10.25;;;;;;;;5041376;28;51219;-45
2022/03/19 15:58:01;;;;;;;;;18.25;14.00;;;;;;;;5039661;28;51488;-45
2022/03/19 16:00:46;;;;;;;;;25.00;12.50;;;;;;;;5047978;28;52302;-45
2022/03/19 16:03:32;;;;;;;;;15.25;11.75;;;;;;;;5059174;28;51091;-48
2022/03/19 16:06:20;;;;;;;;;16.50;12.25;;;;;;;;5059150;28;51080;-45
2022/03/19 16:09:06;;;;;;;;;14.75;10.25;;;;;;;;5059725;28;51127;-47
2022/03/19 16:11:56;;;;;;;;;17.00;11.75;;;;;;;;5043852;28;51454;-45
2022/03/19 16:14:42;;;;;;;;;15.50;9.75;;;;;;;;5054002;28;51115;-46
2022/03/19 16:17:30;;;;;;;;;15.50;12.50;;;;;;;;5059617;28;51153;-47
2022/03/19 16:20:18;;;;;;;;;14.25;11.25;;;;;;;;5039817;28;51567;-46
2022/03/19 16:23:04;;;;;;;;;19.75;12.50;;;;;;;;5029449;28;51370;-47
2022/03/19 16:25:49;;;;;;;;;17.75;12.00;;;;;;;;5056461;28;51196;-51
2022/03/19 16:28:35;;;;;;;;;23.00;13.00;;;;;;;;5044507;28;51130;-45
2022/03/19 16:31:19;;;;;;;;;15.25;10.75;;;;;;;;5058776;28;51099;-46